sensor_id;sensor_type;location;lat;lon;timestamp;temperature;humidity
33815;DHT22;20121;51.910;8.406;2024-03-22T00:00:32;9.20;99.90
33815;DHT22;20121;51.910;8.406;2024-03-22T00:02:58;9.20;99.90
33815;DHT22;20121;51.910;8.406;2024-03-22T00:05:24;9.00;99.90
33815;DHT22;20121;51.910;8.406;2024-03-22T00:07:49;9.50;99.90
33815;DHT22;20121;51.910;8.406;2024-03-22T00:10:15;9.00;99.90
33815;DHT22;20121;51.910;8.406;2024-03-22T00:12:41;9.20;99.90
33815;DHT22;20121;51.910;8.406;2024-03-22T00:15:06;9.30;99.90
33815;DHT22;20121;51.910;8.406;2024-03-22T00:19:59;9.60;99.90
33815;DHT22;20121;51.910;8.406;2024-03-22T00:22:25;9.10;99.90
33815;DHT22;20121;51.910;8.406;2024-03-22T00:24:51;9.30;99.90
33815;DHT22;20121;51.910;8.406;2024-03-22T00:27:16;9.30;99.90
33815;DHT22;20121;51.910;8.406;2024-03-22T00:29:42;9.30;99.90
33815;DHT22;20121;51.910;8.406;2024-03-22T00:32:08;9.40;99.90
33815;DHT22;20121;51.910;8.406;2024-03-22T00:34:34;9.30;99.90
33815;DHT22;20121;51.910;8.406;2024-03-22T00:37:00;9.60;99.90
33815;DHT22;20121;51.910;8.406;2024-03-22T00:39:25;9.40;99.90
33815;DHT22;20121;51.910;8.406;2024-03-22T00:44:17;9.40;99.90
33815;DHT22;20121;51.910;8.406;2024-03-22T00:46:43;9.60;99.90
33815;DHT22;20121;51.910;8.406;2024-03-22T00:49:08;9.30;99.90
33815;DHT22;20121;51.910;8.406;2024-03-22T00:51:34;9.10;99.90
33815;DHT22;20121;51.910;8.406;2024-03-22T00:53:59;9.30;99.90
33815;DHT22;20121;51.910;8.406;2024-03-22T00:56:25;9.30;99.90
33815;DHT22;20121;51.910;8.406;2024-03-22T00:58:50;9.30;99.90
33815;DHT22;20121;51.910;8.406;2024-03-22T01:01:16;9.40;99.90
33815;DHT22;20121;51.910;8.406;2024-03-22T01:03:42;9.10;99.90
33815;DHT22;20121;51.910;8.406;2024-03-22T01:06:07;9.60;99.90
33815;DHT22;20121;51.910;8.406;2024-03-22T01:08:33;9.30;99.90
33815;DHT22;20121;51.910;8.406;2024-03-22T01:10:58;9.10;99.90
33815;DHT22;20121;51.910;8.406;2024-03-22T01:13:24;9.30;99.90
33815;DHT22;20121;51.910;8.406;2024-03-22T01:15:50;9.40;99.90
33815;DHT22;20121;51.910;8.406;2024-03-22T01:18:15;9.60;99.90
33815;DHT22;20121;51.910;8.406;2024-03-22T01:20:41;9.30;99.90
33815;DHT22;20121;51.910;8.406;2024-03-22T01:23:08;9.70;99.90
33815;DHT22;20121;51.910;8.406;2024-03-22T01:25:33;9.10;99.90
33815;DHT22;20121;51.910;8.406;2024-03-22T01:27:59;9.00;99.90
33815;DHT22;20121;51.910;8.406;2024-03-22T01:30:24;9.40;99.90
33815;DHT22;20121;51.910;8.406;2024-03-22T01:32:54;9.70;99.90
33815;DHT22;20121;51.910;8.406;2024-03-22T01:35:20;9.20;99.90
33815;DHT22;20121;51.910;8.406;2024-03-22T01:37:46;9.40;99.90
33815;DHT22;20121;51.910;8.406;2024-03-22T01:40:12;9.50;99.90
33815;DHT22;20121;51.910;8.406;2024-03-22T01:42:38;9.50;99.90
33815;DHT22;20121;51.910;8.406;2024-03-22T01:45:04;9.30;99.90
33815;DHT22;20121;51.910;8.406;2024-03-22T01:47:30;9.50;99.90
33815;DHT22;20121;51.910;8.406;2024-03-22T01:49:56;9.50;99.90
33815;DHT22;20121;51.910;8.406;2024-03-22T01:52:22;9.20;99.90
33815;DHT22;20121;51.910;8.406;2024-03-22T01:54:49;9.30;99.90
33815;DHT22;20121;51.910;8.406;2024-03-22T01:57:14;9.50;99.90
33815;DHT22;20121;51.910;8.406;2024-03-22T01:59:40;9.60;99.90
33815;DHT22;20121;51.910;8.406;2024-03-22T02:02:06;10.00;99.90
33815;DHT22;20121;51.910;8.406;2024-03-22T02:09:24;10.00;99.90
33815;DHT22;20121;51.910;8.406;2024-03-22T02:11:50;9.80;99.90
33815;DHT22;20121;51.910;8.406;2024-03-22T02:14:16;9.70;99.90
33815;DHT22;20121;51.910;8.406;2024-03-22T02:16:42;9.70;99.90
33815;DHT22;20121;51.910;8.406;2024-03-22T02:19:08;9.70;99.90
33815;DHT22;20121;51.910;8.406;2024-03-22T02:21:34;9.90;99.90
33815;DHT22;20121;51.910;8.406;2024-03-22T02:24:00;9.50;99.90
33815;DHT22;20121;51.910;8.406;2024-03-22T02:26:25;9.40;99.90
33815;DHT22;20121;51.910;8.406;2024-03-22T02:28:51;9.60;99.90
33815;DHT22;20121;51.910;8.406;2024-03-22T02:31:16;9.60;99.90
33815;DHT22;20121;51.910;8.406;2024-03-22T02:33:42;9.70;99.90
33815;DHT22;20121;51.910;8.406;2024-03-22T02:36:09;10.40;99.90
33815;DHT22;20121;51.910;8.406;2024-03-22T02:38:34;9.90;99.90
33815;DHT22;20121;51.910;8.406;2024-03-22T02:41:00;10.00;99.90
33815;DHT22;20121;51.910;8.406;2024-03-22T02:43:26;9.60;99.90
33815;DHT22;20121;51.910;8.406;2024-03-22T02:45:51;9.50;99.90
33815;DHT22;20121;51.910;8.406;2024-03-22T02:48:17;9.40;99.90
33815;DHT22;20121;51.910;8.406;2024-03-22T02:50:43;9.70;99.90
33815;DHT22;20121;51.910;8.406;2024-03-22T02:53:09;10.00;99.90
33815;DHT22;20121;51.910;8.406;2024-03-22T02:55:39;9.70;99.90
33815;DHT22;20121;51.910;8.406;2024-03-22T02:58:05;9.50;99.90
33815;DHT22;20121;51.910;8.406;2024-03-22T03:00:32;9.60;99.90
33815;DHT22;20121;51.910;8.406;2024-03-22T03:05:26;8.60;99.90
33815;DHT22;20121;51.910;8.406;2024-03-22T03:07:52;9.70;99.90
33815;DHT22;20121;51.910;8.406;2024-03-22T03:10:17;9.90;99.90
33815;DHT22;20121;51.910;8.406;2024-03-22T03:12:43;9.50;99.90
33815;DHT22;20121;51.910;8.406;2024-03-22T03:15:08;9.90;99.90
33815;DHT22;20121;51.910;8.406;2024-03-22T03:20:00;9.30;99.90
33815;DHT22;20121;51.910;8.406;2024-03-22T03:22:26;9.20;99.90
33815;DHT22;20121;51.910;8.406;2024-03-22T03:24:52;9.80;99.90
33815;DHT22;20121;51.910;8.406;2024-03-22T03:27:17;9.90;99.90
33815;DHT22;20121;51.910;8.406;2024-03-22T03:29:43;9.60;99.90
33815;DHT22;20121;51.910;8.406;2024-03-22T03:32:08;10.00;99.90
33815;DHT22;20121;51.910;8.406;2024-03-22T03:34:34;9.60;99.90
33815;DHT22;20121;51.910;8.406;2024-03-22T03:36:59;9.60;99.90
33815;DHT22;20121;51.910;8.406;2024-03-22T03:39:27;10.10;99.90
33815;DHT22;20121;51.910;8.406;2024-03-22T03:41:52;9.90;99.90
33815;DHT22;20121;51.910;8.406;2024-03-22T03:44:18;9.70;99.90
33815;DHT22;20121;51.910;8.406;2024-03-22T03:46:44;9.90;99.90
33815;DHT22;20121;51.910;8.406;2024-03-22T03:51:35;9.40;99.90
33815;DHT22;20121;51.910;8.406;2024-03-22T03:54:01;9.60;99.90
33815;DHT22;20121;51.910;8.406;2024-03-22T03:56:27;9.30;99.90
33815;DHT22;20121;51.910;8.406;2024-03-22T03:58:52;9.30;99.90
33815;DHT22;20121;51.910;8.406;2024-03-22T04:01:19;9.30;99.90
33815;DHT22;20121;51.910;8.406;2024-03-22T04:03:44;9.30;99.90
33815;DHT22;20121;51.910;8.406;2024-03-22T04:06:10;9.80;99.90
33815;DHT22;20121;51.910;8.406;2024-03-22T04:11:02;9.50;99.90
33815;DHT22;20121;51.910;8.406;2024-03-22T04:13:28;9.50;99.90
33815;DHT22;20121;51.910;8.406;2024-03-22T04:15:54;9.50;99.90
33815;DHT22;20121;51.910;8.406;2024-03-22T04:18:20;9.40;99.90
33815;DHT22;20121;51.910;8.406;2024-03-22T04:20:56;9.90;99.90
33815;DHT22;20121;51.910;8.406;2024-03-22T04:23:22;9.40;99.90
33815;DHT22;20121;51.910;8.406;2024-03-22T04:25:55;9.30;99.90
33815;DHT22;20121;51.910;8.406;2024-03-22T04:28:21;9.60;99.90
33815;DHT22;20121;51.910;8.406;2024-03-22T04:33:21;9.20;99.90
33815;DHT22;20121;51.910;8.406;2024-03-22T04:35:47;9.60;99.90
33815;DHT22;20121;51.910;8.406;2024-03-22T04:38:13;9.50;99.90
33815;DHT22;20121;51.910;8.406;2024-03-22T04:43:04;9.60;99.90
33815;DHT22;20121;51.910;8.406;2024-03-22T04:45:30;9.30;99.90
33815;DHT22;20121;51.910;8.406;2024-03-22T04:47:55;9.70;99.90
33815;DHT22;20121;51.910;8.406;2024-03-22T04:50:21;9.80;99.90
33815;DHT22;20121;51.910;8.406;2024-03-22T04:55:13;9.30;99.90
33815;DHT22;20121;51.910;8.406;2024-03-22T04:57:38;9.50;99.90
33815;DHT22;20121;51.910;8.406;2024-03-22T05:00:04;9.20;99.90
33815;DHT22;20121;51.910;8.406;2024-03-22T05:02:32;9.30;99.90
33815;DHT22;20121;51.910;8.406;2024-03-22T05:04:58;9.40;99.90
33815;DHT22;20121;51.910;8.406;2024-03-22T05:07:23;9.60;99.90
33815;DHT22;20121;51.910;8.406;2024-03-22T05:09:49;9.90;99.90
33815;DHT22;20121;51.910;8.406;2024-03-22T05:12:15;9.50;99.90
33815;DHT22;20121;51.910;8.406;2024-03-22T05:14:40;9.90;99.90
33815;DHT22;20121;51.910;8.406;2024-03-22T05:17:06;9.80;99.90
33815;DHT22;20121;51.910;8.406;2024-03-22T05:19:31;9.30;99.90
33815;DHT22;20121;51.910;8.406;2024-03-22T05:21:57;9.30;99.90
33815;DHT22;20121;51.910;8.406;2024-03-22T05:24:22;9.70;99.90
33815;DHT22;20121;51.910;8.406;2024-03-22T05:26:48;9.40;99.90
33815;DHT22;20121;51.910;8.406;2024-03-22T05:31:47;9.70;99.90
33815;DHT22;20121;51.910;8.406;2024-03-22T05:34:14;10.00;99.90
33815;DHT22;20121;51.910;8.406;2024-03-22T05:36:40;10.00;99.90
33815;DHT22;20121;51.910;8.406;2024-03-22T05:39:06;9.60;99.90
33815;DHT22;20121;51.910;8.406;2024-03-22T05:41:31;9.90;99.90
33815;DHT22;20121;51.910;8.406;2024-03-22T05:43:57;10.20;99.90
33815;DHT22;20121;51.910;8.406;2024-03-22T05:46:22;10.10;99.90
33815;DHT22;20121;51.910;8.406;2024-03-22T05:51:16;9.80;99.90
33815;DHT22;20121;51.910;8.406;2024-03-22T05:53:42;9.50;99.90
33815;DHT22;20121;51.910;8.406;2024-03-22T05:56:08;9.70;99.90
33815;DHT22;20121;51.910;8.406;2024-03-22T05:58:34;10.80;99.90
33815;DHT22;20121;51.910;8.406;2024-03-22T06:01:02;10.20;99.90
33815;DHT22;20121;51.910;8.406;2024-03-22T06:03:28;10.00;99.90
33815;DHT22;20121;51.910;8.406;2024-03-22T06:05:54;10.00;99.90
33815;DHT22;20121;51.910;8.406;2024-03-22T06:08:26;10.00;99.90
33815;DHT22;20121;51.910;8.406;2024-03-22T06:10:55;9.90;99.90
33815;DHT22;20121;51.910;8.406;2024-03-22T06:13:24;10.50;99.90
33815;DHT22;20121;51.910;8.406;2024-03-22T06:15:50;10.30;99.90
33815;DHT22;20121;51.910;8.406;2024-03-22T06:18:15;10.10;99.90
33815;DHT22;20121;51.910;8.406;2024-03-22T06:20:41;10.20;99.90
33815;DHT22;20121;51.910;8.406;2024-03-22T06:23:10;10.50;99.90
33815;DHT22;20121;51.910;8.406;2024-03-22T06:25:36;10.20;99.90
33815;DHT22;20121;51.910;8.406;2024-03-22T06:28:02;9.50;99.90
33815;DHT22;20121;51.910;8.406;2024-03-22T06:32:54;10.20;99.90
33815;DHT22;20121;51.910;8.406;2024-03-22T06:35:23;10.20;99.90
33815;DHT22;20121;51.910;8.406;2024-03-22T06:37:48;10.50;99.90
33815;DHT22;20121;51.910;8.406;2024-03-22T06:40:14;10.90;99.90
33815;DHT22;20121;51.910;8.406;2024-03-22T06:42:40;11.00;99.90
33815;DHT22;20121;51.910;8.406;2024-03-22T06:45:06;10.50;99.90
33815;DHT22;20121;51.910;8.406;2024-03-22T06:47:32;10.90;99.90
33815;DHT22;20121;51.910;8.406;2024-03-22T06:49:58;10.50;99.90
33815;DHT22;20121;51.910;8.406;2024-03-22T06:52:24;10.70;99.90
33815;DHT22;20121;51.910;8.406;2024-03-22T06:57:15;11.00;99.90
33815;DHT22;20121;51.910;8.406;2024-03-22T06:59:41;11.20;99.90
33815;DHT22;20121;51.910;8.406;2024-03-22T07:02:07;11.00;99.90
33815;DHT22;20121;51.910;8.406;2024-03-22T07:04:35;10.80;99.90
33815;DHT22;20121;51.910;8.406;2024-03-22T07:09:26;10.90;99.90
33815;DHT22;20121;51.910;8.406;2024-03-22T07:11:55;10.90;99.90
33815;DHT22;20121;51.910;8.406;2024-03-22T07:14:20;11.00;99.90
33815;DHT22;20121;51.910;8.406;2024-03-22T07:19:12;11.50;99.90
33815;DHT22;20121;51.910;8.406;2024-03-22T07:21:38;11.20;99.90
33815;DHT22;20121;51.910;8.406;2024-03-22T07:24:04;11.00;99.90
33815;DHT22;20121;51.910;8.406;2024-03-22T07:26:30;11.70;99.90
33815;DHT22;20121;51.910;8.406;2024-03-22T07:28:56;11.10;99.90
33815;DHT22;20121;51.910;8.406;2024-03-22T07:31:21;11.30;99.90
33815;DHT22;20121;51.910;8.406;2024-03-22T07:33:47;11.70;99.90
33815;DHT22;20121;51.910;8.406;2024-03-22T07:36:15;11.90;99.90
33815;DHT22;20121;51.910;8.406;2024-03-22T07:38:42;11.80;99.90
33815;DHT22;20121;51.910;8.406;2024-03-22T07:41:07;11.60;99.90
33815;DHT22;20121;51.910;8.406;2024-03-22T07:45:59;11.50;99.90
33815;DHT22;20121;51.910;8.406;2024-03-22T07:48:24;11.80;99.90
33815;DHT22;20121;51.910;8.406;2024-03-22T07:51:00;11.30;99.90
33815;DHT22;20121;51.910;8.406;2024-03-22T07:53:26;11.60;99.90
33815;DHT22;20121;51.910;8.406;2024-03-22T07:55:51;11.50;99.90
33815;DHT22;20121;51.910;8.406;2024-03-22T08:00:43;11.40;99.90
33815;DHT22;20121;51.910;8.406;2024-03-22T08:03:14;11.80;99.90
33815;DHT22;20121;51.910;8.406;2024-03-22T08:05:40;11.70;99.90
33815;DHT22;20121;51.910;8.406;2024-03-22T08:08:06;12.20;99.90
33815;DHT22;20121;51.910;8.406;2024-03-22T08:10:32;12.00;99.90
33815;DHT22;20121;51.910;8.406;2024-03-22T08:12:58;12.00;99.90
33815;DHT22;20121;51.910;8.406;2024-03-22T08:17:49;12.10;99.90
33815;DHT22;20121;51.910;8.406;2024-03-22T08:20:15;12.20;99.90
33815;DHT22;20121;51.910;8.406;2024-03-22T08:22:42;12.40;99.90
33815;DHT22;20121;51.910;8.406;2024-03-22T08:25:07;12.50;99.90
33815;DHT22;20121;51.910;8.406;2024-03-22T08:27:33;11.90;99.90
33815;DHT22;20121;51.910;8.406;2024-03-22T08:30:00;12.30;99.90
33815;DHT22;20121;51.910;8.406;2024-03-22T08:32:25;12.60;99.90
33815;DHT22;20121;51.910;8.406;2024-03-22T08:34:51;12.10;99.90
33815;DHT22;20121;51.910;8.406;2024-03-22T08:37:17;12.80;99.90
33815;DHT22;20121;51.910;8.406;2024-03-22T08:39:43;12.30;99.90
33815;DHT22;20121;51.910;8.406;2024-03-22T08:42:09;12.50;99.90
33815;DHT22;20121;51.910;8.406;2024-03-22T08:44:35;12.20;99.90
33815;DHT22;20121;51.910;8.406;2024-03-22T08:47:01;12.60;99.90
33815;DHT22;20121;51.910;8.406;2024-03-22T08:54:18;13.10;99.90
33815;DHT22;20121;51.910;8.406;2024-03-22T08:56:44;12.60;99.90
33815;DHT22;20121;51.910;8.406;2024-03-22T08:59:09;13.20;99.90
33815;DHT22;20121;51.910;8.406;2024-03-22T09:01:36;12.70;99.90
33815;DHT22;20121;51.910;8.406;2024-03-22T09:04:02;12.90;99.90
33815;DHT22;20121;51.910;8.406;2024-03-22T09:06:28;12.80;99.90
33815;DHT22;20121;51.910;8.406;2024-03-22T09:08:53;12.50;99.90
33815;DHT22;20121;51.910;8.406;2024-03-22T09:11:23;12.80;99.90
33815;DHT22;20121;51.910;8.406;2024-03-22T09:18:43;13.10;99.90
33815;DHT22;20121;51.910;8.406;2024-03-22T09:21:09;13.00;99.90
33815;DHT22;20121;51.910;8.406;2024-03-22T09:23:36;12.90;99.90
33815;DHT22;20121;51.910;8.406;2024-03-22T09:26:02;13.50;99.90
33815;DHT22;20121;51.910;8.406;2024-03-22T09:28:27;13.20;99.90
33815;DHT22;20121;51.910;8.406;2024-03-22T09:30:53;13.60;99.90
33815;DHT22;20121;51.910;8.406;2024-03-22T09:33:18;13.30;99.90
33815;DHT22;20121;51.910;8.406;2024-03-22T09:35:44;13.50;99.90
33815;DHT22;20121;51.910;8.406;2024-03-22T09:38:10;13.20;99.90
33815;DHT22;20121;51.910;8.406;2024-03-22T09:40:38;13.30;99.90
33815;DHT22;20121;51.910;8.406;2024-03-22T09:43:06;13.50;99.90
33815;DHT22;20121;51.910;8.406;2024-03-22T09:45:32;13.60;99.90
33815;DHT22;20121;51.910;8.406;2024-03-22T09:47:59;13.20;99.90
33815;DHT22;20121;51.910;8.406;2024-03-22T09:50:25;13.60;99.90
33815;DHT22;20121;51.910;8.406;2024-03-22T09:52:56;13.30;99.90
33815;DHT22;20121;51.910;8.406;2024-03-22T09:55:25;13.60;99.90
33815;DHT22;20121;51.910;8.406;2024-03-22T10:00:19;13.20;99.90
33815;DHT22;20121;51.910;8.406;2024-03-22T10:02:48;13.50;99.90
33815;DHT22;20121;51.910;8.406;2024-03-22T10:05:14;13.20;99.90
33815;DHT22;20121;51.910;8.406;2024-03-22T10:07:40;13.50;99.90
33815;DHT22;20121;51.910;8.406;2024-03-22T10:10:07;13.60;99.90
33815;DHT22;20121;51.910;8.406;2024-03-22T10:12:33;13.30;99.90
33815;DHT22;20121;51.910;8.406;2024-03-22T10:14:59;13.40;99.90
33815;DHT22;20121;51.910;8.406;2024-03-22T10:17:27;13.80;99.90
33815;DHT22;20121;51.910;8.406;2024-03-22T10:22:19;14.00;99.90
33815;DHT22;20121;51.910;8.406;2024-03-22T10:24:45;13.50;99.90
33815;DHT22;20121;51.910;8.406;2024-03-22T10:27:10;13.50;99.90
33815;DHT22;20121;51.910;8.406;2024-03-22T10:29:37;14.20;99.90
33815;DHT22;20121;51.910;8.406;2024-03-22T10:32:03;13.60;99.90
33815;DHT22;20121;51.910;8.406;2024-03-22T10:34:28;13.70;99.90
33815;DHT22;20121;51.910;8.406;2024-03-22T10:36:59;13.90;99.90
33815;DHT22;20121;51.910;8.406;2024-03-22T10:39:26;14.30;99.90
33815;DHT22;20121;51.910;8.406;2024-03-22T10:41:52;14.20;99.90
33815;DHT22;20121;51.910;8.406;2024-03-22T10:46:45;14.20;99.90
33815;DHT22;20121;51.910;8.406;2024-03-22T10:49:15;14.10;99.90
33815;DHT22;20121;51.910;8.406;2024-03-22T10:51:48;13.90;99.90
33815;DHT22;20121;51.910;8.406;2024-03-22T10:54:25;13.90;99.90
33815;DHT22;20121;51.910;8.406;2024-03-22T10:56:51;13.60;99.90
33815;DHT22;20121;51.910;8.406;2024-03-22T10:59:23;13.90;99.90
33815;DHT22;20121;51.910;8.406;2024-03-22T11:01:49;13.60;99.90
33815;DHT22;20121;51.910;8.406;2024-03-22T11:04:19;14.00;99.90
33815;DHT22;20121;51.910;8.406;2024-03-22T11:06:48;14.00;99.90
33815;DHT22;20121;51.910;8.406;2024-03-22T11:09:25;14.20;99.90
33815;DHT22;20121;51.910;8.406;2024-03-22T11:11:55;13.80;99.90
33815;DHT22;20121;51.910;8.406;2024-03-22T11:14:22;14.10;99.90
33815;DHT22;20121;51.910;8.406;2024-03-22T11:16:51;14.00;99.90
33815;DHT22;20121;51.910;8.406;2024-03-22T11:19:16;13.70;99.90
33815;DHT22;20121;51.910;8.406;2024-03-22T11:21:42;14.20;99.90
33815;DHT22;20121;51.910;8.406;2024-03-22T11:24:08;14.40;99.90
33815;DHT22;20121;51.910;8.406;2024-03-22T11:26:34;14.40;99.90
33815;DHT22;20121;51.910;8.406;2024-03-22T11:29:00;14.00;99.90
33815;DHT22;20121;51.910;8.406;2024-03-22T11:31:26;13.70;99.90
33815;DHT22;20121;51.910;8.406;2024-03-22T11:33:55;14.00;99.90
33815;DHT22;20121;51.910;8.406;2024-03-22T11:36:21;13.90;99.90
33815;DHT22;20121;51.910;8.406;2024-03-22T11:38:48;14.10;99.90
33815;DHT22;20121;51.910;8.406;2024-03-22T11:41:17;14.10;99.90
33815;DHT22;20121;51.910;8.406;2024-03-22T11:43:45;14.40;99.90
33815;DHT22;20121;51.910;8.406;2024-03-22T11:46:11;14.00;99.90
33815;DHT22;20121;51.910;8.406;2024-03-22T11:48:41;14.30;99.90
33815;DHT22;20121;51.910;8.406;2024-03-22T11:51:08;13.90;99.90
33815;DHT22;20121;51.910;8.406;2024-03-22T11:53:35;14.00;99.90
33815;DHT22;20121;51.910;8.406;2024-03-22T11:56:01;13.60;99.90
33815;DHT22;20121;51.910;8.406;2024-03-22T11:58:29;14.00;99.90
33815;DHT22;20121;51.910;8.406;2024-03-22T12:00:56;13.90;99.90
33815;DHT22;20121;51.910;8.406;2024-03-22T12:03:22;13.90;99.90
33815;DHT22;20121;51.910;8.406;2024-03-22T12:05:48;13.80;99.90
33815;DHT22;20121;51.910;8.406;2024-03-22T12:08:17;14.30;99.90
33815;DHT22;20121;51.910;8.406;2024-03-22T12:10:43;14.40;99.90
33815;DHT22;20121;51.910;8.406;2024-03-22T12:13:09;13.80;99.90
33815;DHT22;20121;51.910;8.406;2024-03-22T12:15:35;14.80;99.90
33815;DHT22;20121;51.910;8.406;2024-03-22T12:18:02;13.80;99.90
33815;DHT22;20121;51.910;8.406;2024-03-22T12:20:28;13.70;99.90
33815;DHT22;20121;51.910;8.406;2024-03-22T12:22:53;13.70;99.90
33815;DHT22;20121;51.910;8.406;2024-03-22T12:25:19;13.90;99.90
33815;DHT22;20121;51.910;8.406;2024-03-22T12:27:46;13.60;99.90
33815;DHT22;20121;51.910;8.406;2024-03-22T12:30:12;13.60;99.90
33815;DHT22;20121;51.910;8.406;2024-03-22T12:32:38;13.30;99.90
33815;DHT22;20121;51.910;8.406;2024-03-22T12:35:04;13.20;99.90
33815;DHT22;20121;51.910;8.406;2024-03-22T12:37:30;13.40;99.90
33815;DHT22;20121;51.910;8.406;2024-03-22T12:39:55;13.40;99.90
33815;DHT22;20121;51.910;8.406;2024-03-22T12:42:21;13.40;99.90
33815;DHT22;20121;51.910;8.406;2024-03-22T12:44:48;13.60;99.90
33815;DHT22;20121;51.910;8.406;2024-03-22T12:47:13;13.70;99.90
33815;DHT22;20121;51.910;8.406;2024-03-22T12:49:39;13.50;99.90
33815;DHT22;20121;51.910;8.406;2024-03-22T12:52:05;13.30;99.90
33815;DHT22;20121;51.910;8.406;2024-03-22T12:54:31;13.70;99.90
33815;DHT22;20121;51.910;8.406;2024-03-22T12:56:56;13.20;99.90
33815;DHT22;20121;51.910;8.406;2024-03-22T12:59:22;13.20;99.90
33815;DHT22;20121;51.910;8.406;2024-03-22T13:01:47;13.20;99.90
33815;DHT22;20121;51.910;8.406;2024-03-22T13:04:14;12.70;99.90
33815;DHT22;20121;51.910;8.406;2024-03-22T13:06:40;13.10;99.90
33815;DHT22;20121;51.910;8.406;2024-03-22T13:09:05;12.90;99.90
33815;DHT22;20121;51.910;8.406;2024-03-22T13:11:34;12.90;99.90
33815;DHT22;20121;51.910;8.406;2024-03-22T13:13:59;13.10;99.90
33815;DHT22;20121;51.910;8.406;2024-03-22T13:16:26;13.10;99.90
33815;DHT22;20121;51.910;8.406;2024-03-22T13:18:51;12.70;99.90
33815;DHT22;20121;51.910;8.406;2024-03-22T13:21:17;13.00;99.90
33815;DHT22;20121;51.910;8.406;2024-03-22T13:23:43;12.80;99.90
33815;DHT22;20121;51.910;8.406;2024-03-22T13:26:08;13.20;99.90
33815;DHT22;20121;51.910;8.406;2024-03-22T13:28:34;13.20;99.90
33815;DHT22;20121;51.910;8.406;2024-03-22T13:31:01;13.20;99.90
33815;DHT22;20121;51.910;8.406;2024-03-22T13:33:28;13.50;99.90
33815;DHT22;20121;51.910;8.406;2024-03-22T13:35:54;13.10;99.90
33815;DHT22;20121;51.910;8.406;2024-03-22T13:38:20;13.40;99.90
33815;DHT22;20121;51.910;8.406;2024-03-22T13:40:56;13.20;99.90
33815;DHT22;20121;51.910;8.406;2024-03-22T13:45:51;13.30;99.90
33815;DHT22;20121;51.910;8.406;2024-03-22T13:48:20;12.60;99.90
33815;DHT22;20121;51.910;8.406;2024-03-22T13:50:50;13.00;99.90
33815;DHT22;20121;51.910;8.406;2024-03-22T13:53:15;12.90;99.90
33815;DHT22;20121;51.910;8.406;2024-03-22T13:55:42;13.00;99.90
33815;DHT22;20121;51.910;8.406;2024-03-22T13:58:08;12.70;99.90
33815;DHT22;20121;51.910;8.406;2024-03-22T14:00:34;12.70;99.90
33815;DHT22;20121;51.910;8.406;2024-03-22T14:03:01;12.70;99.90
33815;DHT22;20121;51.910;8.406;2024-03-22T14:05:26;12.50;99.90
33815;DHT22;20121;51.910;8.406;2024-03-22T14:07:52;12.50;99.90
33815;DHT22;20121;51.910;8.406;2024-03-22T14:10:18;12.40;99.90
33815;DHT22;20121;51.910;8.406;2024-03-22T14:12:45;12.40;99.90
33815;DHT22;20121;51.910;8.406;2024-03-22T14:15:11;12.30;99.90
33815;DHT22;20121;51.910;8.406;2024-03-22T14:17:37;12.10;99.90
33815;DHT22;20121;51.910;8.406;2024-03-22T14:20:03;12.20;99.90
33815;DHT22;20121;51.910;8.406;2024-03-22T14:22:40;12.20;99.90
33815;DHT22;20121;51.910;8.406;2024-03-22T14:25:07;12.10;99.90
33815;DHT22;20121;51.910;8.406;2024-03-22T14:27:36;12.00;99.90
33815;DHT22;20121;51.910;8.406;2024-03-22T14:30:03;12.10;99.90
33815;DHT22;20121;51.910;8.406;2024-03-22T14:32:32;12.00;99.90
33815;DHT22;20121;51.910;8.406;2024-03-22T14:34:57;11.80;99.90
33815;DHT22;20121;51.910;8.406;2024-03-22T14:37:23;11.90;99.90
33815;DHT22;20121;51.910;8.406;2024-03-22T14:39:49;12.20;99.90
33815;DHT22;20121;51.910;8.406;2024-03-22T14:42:14;12.10;99.90
33815;DHT22;20121;51.910;8.406;2024-03-22T14:44:40;11.80;99.90
33815;DHT22;20121;51.910;8.406;2024-03-22T14:47:06;11.80;99.90
33815;DHT22;20121;51.910;8.406;2024-03-22T14:49:31;11.80;99.90
33815;DHT22;20121;51.910;8.406;2024-03-22T14:51:57;11.40;99.90
33815;DHT22;20121;51.910;8.406;2024-03-22T14:54:23;11.40;99.90
33815;DHT22;20121;51.910;8.406;2024-03-22T14:56:48;11.70;99.90
33815;DHT22;20121;51.910;8.406;2024-03-22T14:59:14;11.60;99.90
33815;DHT22;20121;51.910;8.406;2024-03-22T15:01:40;11.60;99.90
33815;DHT22;20121;51.910;8.406;2024-03-22T15:04:05;11.60;99.90
33815;DHT22;20121;51.910;8.406;2024-03-22T15:06:32;11.60;99.90
33815;DHT22;20121;51.910;8.406;2024-03-22T15:08:57;11.50;99.90
33815;DHT22;20121;51.910;8.406;2024-03-22T15:11:24;11.60;99.90
33815;DHT22;20121;51.910;8.406;2024-03-22T15:13:50;11.50;99.90
33815;DHT22;20121;51.910;8.406;2024-03-22T15:16:15;11.60;99.90
33815;DHT22;20121;51.910;8.406;2024-03-22T15:18:41;11.70;99.90
33815;DHT22;20121;51.910;8.406;2024-03-22T15:21:07;11.80;99.90
33815;DHT22;20121;51.910;8.406;2024-03-22T15:23:34;11.60;99.90
33815;DHT22;20121;51.910;8.406;2024-03-22T15:26:00;11.30;99.90
33815;DHT22;20121;51.910;8.406;2024-03-22T15:28:25;11.30;99.90
33815;DHT22;20121;51.910;8.406;2024-03-22T15:30:52;11.50;99.90
33815;DHT22;20121;51.910;8.406;2024-03-22T15:33:17;11.30;99.90
33815;DHT22;20121;51.910;8.406;2024-03-22T15:35:43;12.60;99.90
33815;DHT22;20121;51.910;8.406;2024-03-22T15:38:15;11.30;99.90
33815;DHT22;20121;51.910;8.406;2024-03-22T15:40:41;11.50;99.90
33815;DHT22;20121;51.910;8.406;2024-03-22T15:43:06;11.10;99.90
33815;DHT22;20121;51.910;8.406;2024-03-22T15:45:34;11.30;99.90
33815;DHT22;20121;51.910;8.406;2024-03-22T15:48:02;11.40;99.90
33815;DHT22;20121;51.910;8.406;2024-03-22T15:50:28;11.30;99.90
33815;DHT22;20121;51.910;8.406;2024-03-22T15:52:54;11.60;99.90
33815;DHT22;20121;51.910;8.406;2024-03-22T15:55:19;11.10;99.90
33815;DHT22;20121;51.910;8.406;2024-03-22T15:57:45;11.60;99.90
33815;DHT22;20121;51.910;8.406;2024-03-22T16:00:11;11.20;99.90
33815;DHT22;20121;51.910;8.406;2024-03-22T16:02:41;11.20;99.90
33815;DHT22;20121;51.910;8.406;2024-03-22T16:05:07;10.80;99.90
33815;DHT22;20121;51.910;8.406;2024-03-22T16:07:34;11.10;99.90
33815;DHT22;20121;51.910;8.406;2024-03-22T16:10:00;11.20;99.90
33815;DHT22;20121;51.910;8.406;2024-03-22T16:12:28;11.00;99.90
33815;DHT22;20121;51.910;8.406;2024-03-22T16:14:53;11.10;99.90
33815;DHT22;20121;51.910;8.406;2024-03-22T16:17:19;11.40;99.90
33815;DHT22;20121;51.910;8.406;2024-03-22T16:19:45;11.10;99.90
33815;DHT22;20121;51.910;8.406;2024-03-22T16:22:10;10.80;99.90
33815;DHT22;20121;51.910;8.406;2024-03-22T16:24:36;10.00;99.90
33815;DHT22;20121;51.910;8.406;2024-03-22T16:27:01;11.30;99.90
33815;DHT22;20121;51.910;8.406;2024-03-22T16:29:27;11.20;99.90
33815;DHT22;20121;51.910;8.406;2024-03-22T16:31:53;10.70;99.90
33815;DHT22;20121;51.910;8.406;2024-03-22T16:34:19;11.10;99.90
33815;DHT22;20121;51.910;8.406;2024-03-22T16:36:44;10.90;99.90